Ellport, Pennsylvania
Current Conditions -  °F | °C
As of 11:47 AM on Friday 19 Dec 2014 (Local Time) from KBVI Reporting Station
Overcast Overcast  
Wind Chill: 28°   Ceiling: 1400
Heat Index: 28°   Visibility: 10mi
Dew Point: 27°   Wind: 3mph
Humidity: 93%   Direction: 310°NW
Pressure: 30.19"   Gusts: NA
Location:  40.8752°N, 80.253°W
Report Text: KBVI 191647Z 31003KT 10SM OVC014 M02/M03 A3019
Loading
Personal Weather Stations






























Interactive Weather Map New forecast layout! Learn more

10-Day Weather Forecast

Advertisements
Track Severe Weather on mobile